createdAt,value
2023-07-11T00:02:10.982Z,13.90
2023-07-11T00:04:39.461Z,13.80
2023-07-11T00:07:07.599Z,13.80
2023-07-11T00:09:35.680Z,13.80
2023-07-11T00:12:05.807Z,13.80
2023-07-11T00:14:38.131Z,13.80
2023-07-11T00:17:07.044Z,13.80
2023-07-11T00:19:49.026Z,13.70
2023-07-11T00:22:17.683Z,13.70
2023-07-11T00:24:46.192Z,13.70
2023-07-11T00:27:18.616Z,13.70
2023-07-11T00:29:47.363Z,13.70
2023-07-11T00:32:15.478Z,13.60
2023-07-11T00:34:43.882Z,13.60
2023-07-11T00:37:12.094Z,13.50
2023-07-11T00:39:40.069Z,13.50
2023-07-11T00:42:10.420Z,13.40
2023-07-11T00:44:55.056Z,13.40
2023-07-11T00:47:26.221Z,13.30
2023-07-11T00:49:59.014Z,13.30
2023-07-11T00:52:29.552Z,13.30
2023-07-11T00:55:01.355Z,13.20
2023-07-11T00:57:33.924Z,13.20
2023-07-11T01:00:05.942Z,13.10
2023-07-11T01:02:35.089Z,13.10
2023-07-11T01:05:04.689Z,13.10
2023-07-11T01:07:36.436Z,13.00
2023-07-11T01:10:05.421Z,13.00
2023-07-11T01:12:33.517Z,13.00
2023-07-11T01:15:04.539Z,13.00
2023-07-11T01:17:34.644Z,13.00
2023-07-11T01:20:06.246Z,12.90
2023-07-11T01:22:39.013Z,12.90
2023-07-11T01:25:11.156Z,12.90
2023-07-11T01:27:39.383Z,12.90
2023-07-11T01:30:10.279Z,12.80
2023-07-11T01:32:39.129Z,12.70
2023-07-11T01:35:08.277Z,12.70
2023-07-11T01:37:38.550Z,12.70
2023-07-11T01:40:07.943Z,12.70
2023-07-11T01:42:37.268Z,12.60
2023-07-11T01:45:07.451Z,12.60
2023-07-11T01:47:35.501Z,12.50
2023-07-11T01:50:03.467Z,12.50
2023-07-11T01:52:31.434Z,12.50
2023-07-11T01:55:02.137Z,12.50
2023-07-11T01:57:33.860Z,12.40
2023-07-11T02:00:01.819Z,12.40
2023-07-11T02:02:30.070Z,12.40
2023-07-11T02:04:58.327Z,12.40
2023-07-11T02:07:26.446Z,12.30
2023-07-11T02:09:54.380Z,12.30
2023-07-11T02:12:23.797Z,12.30
2023-07-11T02:14:53.094Z,12.30
2023-07-11T02:17:21.241Z,12.30
2023-07-11T02:19:50.378Z,12.30
2023-07-11T02:22:18.308Z,12.20
2023-07-11T02:24:47.828Z,12.20
2023-07-11T02:27:16.016Z,12.20
2023-07-11T02:29:45.543Z,12.10
2023-07-11T02:32:13.828Z,12.10
2023-07-11T02:34:41.727Z,12.10
2023-07-11T02:37:09.710Z,12.10
2023-07-11T02:39:38.288Z,12.10
2023-07-11T02:42:08.298Z,12.00
2023-07-11T02:44:36.514Z,12.00
2023-07-11T02:47:06.586Z,12.00
2023-07-11T02:49:34.608Z,12.00
2023-07-11T02:52:02.561Z,12.00
2023-07-11T02:54:30.669Z,11.90
2023-07-11T02:56:58.604Z,11.90
2023-07-11T02:59:26.668Z,12.00
2023-07-11T03:01:54.899Z,11.90
2023-07-11T03:04:24.589Z,11.90
2023-07-11T03:06:54.921Z,11.90
2023-07-11T03:09:23.289Z,11.90
2023-07-11T03:11:51.502Z,11.90
2023-07-11T03:14:19.738Z,11.90
2023-07-11T03:16:51.910Z,12.00
2023-07-11T03:19:21.096Z,12.10
2023-07-11T03:21:50.581Z,12.10
2023-07-11T03:24:18.940Z,12.20
2023-07-11T03:26:48.056Z,12.20
2023-07-11T03:29:16.760Z,12.30
2023-07-11T03:31:45.000Z,12.40
2023-07-11T03:34:13.075Z,12.40
2023-07-11T03:36:41.873Z,12.60
2023-07-11T03:39:11.770Z,12.80
2023-07-11T03:41:39.880Z,13.00
2023-07-11T03:44:08.080Z,13.10
2023-07-11T03:46:36.324Z,13.20
2023-07-11T03:49:04.439Z,13.20
2023-07-11T03:51:32.774Z,13.20
2023-07-11T03:54:02.128Z,13.20
2023-07-11T03:56:32.041Z,13.40
2023-07-11T03:59:00.315Z,13.60
2023-07-11T04:01:28.437Z,14.00
2023-07-11T04:03:56.494Z,14.40
2023-07-11T04:06:24.503Z,14.60
2023-07-11T04:08:52.559Z,15.10
2023-07-11T04:11:20.769Z,15.50
2023-07-11T04:13:50.256Z,16.10
2023-07-11T04:16:18.396Z,16.70
2023-07-11T04:18:46.434Z,17.40
2023-07-11T04:21:14.679Z,18.30
2023-07-11T04:23:42.711Z,18.90
2023-07-11T04:26:10.832Z,19.30
2023-07-11T04:28:38.720Z,19.90
2023-07-11T04:31:08.079Z,20.40
2023-07-11T04:33:36.018Z,20.70
2023-07-11T04:36:09.960Z,21.20
2023-07-11T04:38:38.114Z,21.40
2023-07-11T04:41:07.129Z,21.80
2023-07-11T04:43:36.158Z,22.20
2023-07-11T04:46:06.087Z,22.20
2023-07-11T04:48:37.426Z,22.60
2023-07-11T04:51:07.588Z,22.90
2023-07-11T04:53:37.087Z,23.10
2023-07-11T04:56:08.011Z,23.60
2023-07-11T04:58:37.323Z,24.00
2023-07-11T05:01:07.373Z,25.10
2023-07-11T05:03:37.918Z,25.80
2023-07-11T05:06:07.295Z,25.90
2023-07-11T05:08:35.607Z,26.10
2023-07-11T05:11:05.833Z,26.70
2023-07-11T05:13:35.481Z,27.00
2023-07-11T05:16:05.071Z,26.90
2023-07-11T05:18:35.168Z,27.20
2023-07-11T05:21:04.509Z,28.30
2023-07-11T05:23:33.016Z,28.50
2023-07-11T05:26:01.297Z,28.40
2023-07-11T05:28:30.974Z,28.80
2023-07-11T05:31:01.742Z,28.90
2023-07-11T05:33:30.550Z,29.20
2023-07-11T05:36:07.214Z,29.70
2023-07-11T05:38:37.163Z,29.70
2023-07-11T05:41:05.387Z,29.90
2023-07-11T05:43:33.305Z,29.90
2023-07-11T05:46:01.423Z,30.60
2023-07-11T05:48:29.666Z,30.80
2023-07-11T05:51:01.440Z,30.70
2023-07-11T05:53:30.176Z,31.20
2023-07-11T05:56:00.045Z,31.50
2023-07-11T05:58:29.220Z,31.70
2023-07-11T06:00:58.410Z,31.80
2023-07-11T06:03:28.964Z,32.20
2023-07-11T06:06:01.984Z,32.00
2023-07-11T06:08:30.198Z,32.20
2023-07-11T06:11:01.234Z,32.70
2023-07-11T06:13:30.793Z,32.70
2023-07-11T06:16:01.692Z,33.00
2023-07-11T06:18:29.934Z,33.50
2023-07-11T06:20:57.891Z,34.30
2023-07-11T06:23:25.924Z,34.10
2023-07-11T06:25:54.071Z,34.70
2023-07-11T06:28:23.570Z,35.10
2023-07-11T06:30:51.814Z,34.80
2023-07-11T06:33:20.368Z,34.60
2023-07-11T06:35:51.183Z,35.10
2023-07-11T06:38:20.003Z,35.50
2023-07-11T06:40:52.249Z,34.70
2023-07-11T06:43:21.780Z,35.60
2023-07-11T06:45:54.628Z,34.90
2023-07-11T06:48:24.243Z,34.90
2023-07-11T06:50:53.858Z,35.60
2023-07-11T06:53:23.333Z,35.60
2023-07-11T06:55:53.359Z,36.20
2023-07-11T06:58:22.087Z,37.00
2023-07-11T07:00:56.308Z,36.80
2023-07-11T07:03:25.829Z,36.70
2023-07-11T07:05:57.333Z,36.40
2023-07-11T07:08:26.661Z,36.50
2023-07-11T07:10:55.177Z,37.20
2023-07-11T07:13:25.227Z,37.10
2023-07-11T07:15:57.475Z,37.80
2023-07-11T07:18:26.625Z,37.50
2023-07-11T07:21:10.932Z,37.10
2023-07-11T07:23:39.198Z,37.20
2023-07-11T07:26:07.581Z,37.10
2023-07-11T07:28:36.421Z,37.80
2023-07-11T07:31:07.567Z,38.00
2023-07-11T07:33:36.657Z,38.10
2023-07-11T07:36:07.081Z,38.60
2023-07-11T07:38:35.922Z,38.40
2023-07-11T07:41:05.954Z,38.20
2023-07-11T07:43:35.201Z,37.90
2023-07-11T07:46:05.781Z,38.50
2023-07-11T07:48:34.610Z,38.90
2023-07-11T07:51:05.224Z,39.10
2023-07-11T07:53:33.797Z,39.00
2023-07-11T07:56:06.776Z,38.50
2023-07-11T08:01:08.192Z,37.90
2023-07-11T08:03:37.327Z,38.40
2023-07-11T08:08:37.119Z,38.50
2023-07-11T08:11:06.517Z,38.90
2023-07-11T08:13:44.987Z,39.60
2023-07-11T08:18:57.176Z,39.20
2023-07-11T08:21:25.493Z,39.20
2023-07-11T08:23:53.570Z,39.00
2023-07-11T08:26:22.365Z,38.60
2023-07-11T08:28:51.469Z,40.10
2023-07-11T08:31:19.662Z,40.30
2023-07-11T08:33:49.282Z,40.90
2023-07-11T08:36:17.275Z,40.30
2023-07-11T08:38:47.497Z,39.90
2023-07-11T08:41:25.773Z,39.90
2023-07-11T08:43:59.766Z,40.70
2023-07-11T08:46:29.876Z,39.30
2023-07-11T08:49:01.957Z,39.70
2023-07-11T08:51:34.088Z,39.70
2023-07-11T08:54:07.501Z,39.10
2023-07-11T08:56:42.539Z,38.50
2023-07-11T08:59:16.604Z,38.30
2023-07-11T09:01:51.660Z,38.50
2023-07-11T09:04:24.778Z,39.10
2023-07-11T09:06:57.093Z,39.60
2023-07-11T09:09:25.816Z,39.30
2023-07-11T09:12:07.447Z,40.00
2023-07-11T09:14:46.247Z,40.40
2023-07-11T09:17:25.184Z,40.80
2023-07-11T09:20:07.436Z,40.90
2023-07-11T09:22:45.280Z,41.10
2023-07-11T09:25:18.883Z,41.60
2023-07-11T09:27:50.602Z,40.20
2023-07-11T09:30:24.971Z,39.70
2023-07-11T09:32:53.644Z,39.40
2023-07-11T09:35:28.957Z,38.80
2023-07-11T09:38:03.354Z,38.50
2023-07-11T09:40:41.406Z,37.20
2023-07-11T09:43:11.680Z,37.80
2023-07-11T09:45:43.345Z,38.40
2023-07-11T09:48:16.759Z,38.60
2023-07-11T09:53:34.048Z,38.10
2023-07-11T09:56:12.295Z,38.00
2023-07-11T09:58:42.141Z,38.50
2023-07-11T10:01:19.451Z,38.30
2023-07-11T10:03:49.024Z,38.90
2023-07-11T10:09:18.524Z,39.50
2023-07-11T10:11:54.138Z,40.30
2023-07-11T10:14:27.358Z,40.30
2023-07-11T10:16:57.767Z,39.40
2023-07-11T10:19:27.087Z,38.60
2023-07-11T10:22:00.368Z,37.50
2023-07-11T10:24:36.304Z,38.80
2023-07-11T10:27:13.052Z,38.00
2023-07-11T10:29:46.040Z,36.80
2023-07-11T10:32:18.885Z,37.50
2023-07-11T10:34:52.053Z,37.60
2023-07-11T10:37:28.828Z,37.30
2023-07-11T10:40:04.802Z,36.20
2023-07-11T10:42:40.954Z,36.60
2023-07-11T10:45:14.033Z,36.50
2023-07-11T10:47:49.775Z,35.30
2023-07-11T10:50:32.625Z,34.70
2023-07-11T10:53:21.260Z,33.40
2023-07-11T10:55:55.783Z,33.10
2023-07-11T10:58:26.107Z,32.80
2023-07-11T11:01:07.368Z,32.50
2023-07-11T11:03:40.209Z,31.90
2023-07-11T11:06:31.237Z,32.00
2023-07-11T11:09:09.237Z,31.90
2023-07-11T11:11:48.776Z,31.90
2023-07-11T11:14:20.864Z,31.90
2023-07-11T11:17:04.147Z,31.90
2023-07-11T11:19:45.887Z,31.80
2023-07-11T11:22:20.059Z,31.80
2023-07-11T11:24:54.406Z,31.80
2023-07-11T11:27:43.616Z,31.40
2023-07-11T11:30:31.181Z,31.40
2023-07-11T11:33:11.186Z,31.60
2023-07-11T11:35:47.554Z,31.90
2023-07-11T11:38:29.943Z,32.10
2023-07-11T11:41:03.448Z,32.10
2023-07-11T11:45:29.225Z,31.90
2023-07-11T11:51:27.634Z,32.10
2023-07-11T11:54:06.548Z,32.10
2023-07-11T11:56:45.397Z,31.90
2023-07-11T11:59:19.297Z,31.90
2023-07-11T12:02:02.721Z,31.60
2023-07-11T12:05:07.420Z,31.50
2023-07-11T12:07:42.544Z,31.30
2023-07-11T12:10:21.057Z,31.10
2023-07-11T12:13:17.520Z,31.20
2023-07-11T12:15:54.566Z,31.30
2023-07-11T12:18:49.584Z,31.20
2023-07-11T12:21:42.837Z,31.00
2023-07-11T12:24:44.126Z,30.70
2023-07-11T12:27:44.447Z,31.00
2023-07-11T12:30:40.267Z,31.30
2023-07-11T12:33:38.175Z,31.70
2023-07-11T12:36:53.830Z,32.00
2023-07-11T12:39:46.977Z,32.30
2023-07-11T12:42:42.219Z,32.30
2023-07-11T12:45:17.971Z,32.60
2023-07-11T12:47:49.965Z,33.00
2023-07-11T12:50:23.155Z,33.30
2023-07-11T12:53:00.171Z,33.10
2023-07-11T12:55:29.731Z,32.90
2023-07-11T12:57:58.415Z,32.70
2023-07-11T13:00:30.573Z,32.60
2023-07-11T13:03:23.739Z,32.80
2023-07-11T13:06:06.888Z,32.60
2023-07-11T13:08:43.168Z,32.70
2023-07-11T13:11:21.675Z,32.80
2023-07-11T13:13:51.195Z,32.80
2023-07-11T13:16:23.899Z,32.40
2023-07-11T13:18:54.389Z,32.30
2023-07-11T13:21:22.827Z,32.00
2023-07-11T13:23:51.680Z,31.60
2023-07-11T13:26:22.997Z,31.50
2023-07-11T13:29:04.811Z,31.60
2023-07-11T13:31:34.523Z,31.70
2023-07-11T13:34:11.589Z,31.80
2023-07-11T13:36:42.862Z,32.00
2023-07-11T13:39:16.629Z,32.10
2023-07-11T13:41:49.072Z,32.10
2023-07-11T13:44:26.074Z,32.10
2023-07-11T13:46:55.329Z,32.20
2023-07-11T13:49:26.720Z,32.30
2023-07-11T13:51:59.457Z,32.30
2023-07-11T13:54:34.141Z,32.40
2023-07-11T13:57:03.650Z,32.40
2023-07-11T14:02:03.656Z,32.10
2023-07-11T14:04:35.065Z,32.20
2023-07-11T14:07:03.580Z,32.40
2023-07-11T14:09:31.633Z,32.50
2023-07-11T14:11:59.633Z,32.70
2023-07-11T14:14:40.132Z,33.00
2023-07-11T14:17:16.144Z,32.90
2023-07-11T14:19:46.035Z,32.90
2023-07-11T14:22:16.497Z,32.80
2023-07-11T14:24:47.352Z,32.70
2023-07-11T14:27:18.193Z,32.50
2023-07-11T14:29:46.227Z,32.60
2023-07-11T14:32:22.667Z,32.80
2023-07-11T14:34:51.962Z,32.80
2023-07-11T14:37:23.642Z,32.60
2023-07-11T14:39:52.239Z,32.80
2023-07-11T14:42:23.092Z,32.90
2023-07-11T14:44:51.112Z,32.90
2023-07-11T14:47:19.664Z,32.90
2023-07-11T14:49:49.053Z,32.70
2023-07-11T14:52:32.680Z,32.80
2023-07-11T15:00:04.744Z,32.80
2023-07-11T15:02:34.673Z,32.90
2023-07-11T15:10:10.810Z,33.40
2023-07-11T15:17:50.423Z,33.40
2023-07-11T15:20:21.288Z,33.40
2023-07-11T15:22:55.542Z,33.20
2023-07-11T15:25:30.055Z,33.10
2023-07-11T15:27:58.812Z,32.80
2023-07-11T15:30:27.336Z,32.70
2023-07-11T15:32:55.513Z,32.60
2023-07-11T15:35:26.277Z,32.70
2023-07-11T15:37:55.691Z,32.70
2023-07-11T15:40:25.617Z,32.50
2023-07-11T15:42:55.271Z,32.40
2023-07-11T15:45:25.988Z,32.30
2023-07-11T15:47:55.016Z,32.30
2023-07-11T15:50:24.765Z,32.30
2023-07-11T15:52:53.108Z,32.30
2023-07-11T15:55:25.940Z,32.30
2023-07-11T15:57:56.939Z,32.30
2023-07-11T16:00:27.305Z,32.00
2023-07-11T16:02:55.845Z,31.90
2023-07-11T16:05:26.373Z,31.70
2023-07-11T16:07:54.529Z,31.60
2023-07-11T16:10:27.256Z,31.60
2023-07-11T16:12:55.353Z,31.60
2023-07-11T16:15:27.112Z,31.80
2023-07-11T16:17:55.431Z,32.00
2023-07-11T16:20:26.252Z,32.10
2023-07-11T16:22:54.620Z,32.20
2023-07-11T16:25:25.438Z,32.20
2023-07-11T16:27:55.525Z,32.10
2023-07-11T16:30:26.950Z,31.90
2023-07-11T16:32:56.037Z,31.70
2023-07-11T16:35:28.134Z,31.70
2023-07-11T16:38:03.287Z,31.60
2023-07-11T16:40:33.296Z,31.60
2023-07-11T16:43:01.364Z,31.50
2023-07-11T16:45:32.531Z,31.40
2023-07-11T16:48:00.717Z,31.30
2023-07-11T16:50:30.367Z,31.30
2023-07-11T16:53:01.248Z,31.20
2023-07-11T16:55:30.458Z,31.10
2023-07-11T16:57:59.941Z,31.00
2023-07-11T17:00:29.014Z,31.00
2023-07-11T17:02:57.029Z,31.00
2023-07-11T17:05:28.188Z,31.00
2023-07-11T17:07:56.652Z,30.90
2023-07-11T17:10:24.612Z,30.90
2023-07-11T17:12:52.512Z,30.80
2023-07-11T17:15:21.878Z,30.70
2023-07-11T17:17:50.037Z,30.70
2023-07-11T17:20:21.995Z,30.50
2023-07-11T17:22:50.591Z,30.50
2023-07-11T17:25:21.037Z,30.30
2023-07-11T17:27:52.921Z,30.30
2023-07-11T17:30:23.163Z,30.00
2023-07-11T17:32:51.219Z,29.90
2023-07-11T17:35:19.339Z,29.80
2023-07-11T17:37:49.344Z,29.70
2023-07-11T17:40:23.031Z,29.60
2023-07-11T17:42:51.864Z,29.50
2023-07-11T17:45:36.438Z,29.40
2023-07-11T17:48:18.912Z,29.40
2023-07-11T17:50:53.842Z,29.20
2023-07-11T17:53:22.530Z,29.10
2023-07-11T17:55:51.072Z,29.00
2023-07-11T17:58:25.289Z,28.80
2023-07-11T18:00:55.657Z,28.40
2023-07-11T18:03:26.213Z,28.40
2023-07-11T18:05:56.969Z,28.20
2023-07-11T18:08:26.979Z,27.90
2023-07-11T18:10:55.047Z,27.80
2023-07-11T18:13:22.970Z,27.60
2023-07-11T18:15:51.582Z,27.40
2023-07-11T18:18:27.669Z,27.20
2023-07-11T18:20:58.794Z,27.00
2023-07-11T18:23:29.105Z,26.80
2023-07-11T18:25:59.358Z,26.60
2023-07-11T18:28:28.534Z,26.40
2023-07-11T18:30:56.839Z,26.20
2023-07-11T18:33:26.204Z,26.00
2023-07-11T18:35:54.200Z,25.90
2023-07-11T18:38:24.333Z,25.70
2023-07-11T18:40:53.424Z,25.50
2023-07-11T18:43:21.426Z,25.40
2023-07-11T18:45:50.704Z,25.20
2023-07-11T18:48:18.935Z,25.10
2023-07-11T18:50:48.481Z,24.90
2023-07-11T18:53:16.439Z,24.80
2023-07-11T18:55:47.332Z,24.60
2023-07-11T18:58:18.629Z,24.50
2023-07-11T19:00:49.882Z,24.40
2023-07-11T19:03:19.638Z,24.20
2023-07-11T19:05:49.414Z,24.10
2023-07-11T19:08:18.904Z,24.00
2023-07-11T19:10:47.862Z,23.80
2023-07-11T19:13:16.315Z,23.70
2023-07-11T19:15:44.709Z,23.60
2023-07-11T19:18:18.032Z,23.40
2023-07-11T19:20:46.320Z,23.30
2023-07-11T19:23:17.582Z,23.10
2023-07-11T19:25:47.523Z,23.00
2023-07-11T19:28:25.406Z,22.70
2023-07-11T19:30:56.290Z,22.70
2023-07-11T19:33:25.677Z,22.60
2023-07-11T19:35:56.188Z,22.40
2023-07-11T19:38:27.520Z,22.40
2023-07-11T19:40:57.222Z,22.30
2023-07-11T19:43:25.818Z,22.20
2023-07-11T19:45:56.752Z,22.10
2023-07-11T19:48:26.516Z,21.90
2023-07-11T19:50:56.022Z,21.80
2023-07-11T19:53:32.293Z,21.70
2023-07-11T19:56:02.859Z,21.60
2023-07-11T19:58:32.035Z,21.50
2023-07-11T20:01:02.077Z,21.40
2023-07-11T20:03:32.050Z,21.30
2023-07-11T20:06:01.622Z,21.20
2023-07-11T20:08:32.435Z,21.10
2023-07-11T20:11:02.022Z,21.00
2023-07-11T20:13:31.515Z,21.20
2023-07-11T20:16:02.475Z,21.40
2023-07-11T20:18:32.316Z,21.90
2023-07-11T20:21:02.182Z,22.70
2023-07-11T20:23:31.887Z,23.00
2023-07-11T20:26:02.141Z,23.30
2023-07-11T20:28:33.367Z,23.60
2023-07-11T20:31:02.125Z,23.90
2023-07-11T20:33:30.477Z,24.00
2023-07-11T20:35:58.805Z,24.10
2023-07-11T20:38:26.704Z,24.30
2023-07-11T20:40:56.002Z,24.30
2023-07-11T20:43:24.054Z,24.30
2023-07-11T20:45:52.186Z,24.40
2023-07-11T20:48:22.516Z,24.40
2023-07-11T20:50:51.722Z,24.40
2023-07-11T20:53:22.116Z,24.40
2023-07-11T20:55:53.376Z,24.30
2023-07-11T20:58:22.721Z,24.30
2023-07-11T21:00:52.232Z,24.40
2023-07-11T21:03:21.755Z,24.40
2023-07-11T21:05:50.591Z,24.40
2023-07-11T21:08:27.684Z,24.40
2023-07-11T21:10:56.676Z,24.40
2023-07-11T21:13:26.562Z,24.30
2023-07-11T21:15:55.807Z,24.30
2023-07-11T21:18:26.094Z,24.40
2023-07-11T21:20:56.295Z,24.30
2023-07-11T21:23:25.112Z,24.30
2023-07-11T21:25:54.351Z,24.30
2023-07-11T21:28:30.383Z,24.30
2023-07-11T21:31:00.366Z,24.30
2023-07-11T21:33:29.348Z,24.20
2023-07-11T21:36:01.064Z,24.20
2023-07-11T21:38:30.621Z,24.20
2023-07-11T21:41:00.363Z,24.10
2023-07-11T21:43:29.658Z,24.10
2023-07-11T21:45:59.140Z,24.10
2023-07-11T21:48:29.150Z,24.10
2023-07-11T21:50:59.189Z,24.10
2023-07-11T21:53:28.958Z,24.10
2023-07-11T21:56:00.728Z,24.10
2023-07-11T21:58:30.236Z,24.10
2023-07-11T22:00:58.289Z,24.00
2023-07-11T22:03:28.706Z,24.00
2023-07-11T22:05:59.264Z,24.00
2023-07-11T22:08:30.090Z,24.00
2023-07-11T22:10:59.425Z,24.00
2023-07-11T22:13:30.988Z,24.00
2023-07-11T22:15:59.533Z,24.00
2023-07-11T22:18:29.700Z,24.00
2023-07-11T22:20:58.016Z,24.00
2023-07-11T22:23:26.329Z,24.00
2023-07-11T22:25:54.281Z,23.90
2023-07-11T22:28:24.317Z,23.80
2023-07-11T22:30:54.836Z,23.80
2023-07-11T22:33:22.867Z,23.90
2023-07-11T22:35:51.281Z,23.90
2023-07-11T22:38:19.259Z,23.90
2023-07-11T22:40:48.938Z,23.90
2023-07-11T22:43:18.635Z,23.80
2023-07-11T22:45:48.935Z,23.80
2023-07-11T22:48:20.854Z,23.80
2023-07-11T22:50:50.704Z,23.80
2023-07-11T22:53:22.042Z,23.80
2023-07-11T22:55:51.811Z,23.80
2023-07-11T22:58:26.962Z,23.70
2023-07-11T23:00:56.070Z,23.70
2023-07-11T23:03:26.780Z,23.70
2023-07-11T23:05:58.578Z,23.70
2023-07-11T23:08:30.182Z,23.70
2023-07-11T23:10:59.205Z,23.80
2023-07-11T23:13:27.605Z,23.70
2023-07-11T23:15:57.860Z,23.70
2023-07-11T23:18:29.024Z,23.80
2023-07-11T23:20:59.631Z,23.70
2023-07-11T23:23:29.272Z,23.80
2023-07-11T23:25:58.810Z,23.80
2023-07-11T23:28:28.764Z,24.00
2023-07-11T23:30:58.856Z,24.00
2023-07-11T23:33:28.474Z,24.00
2023-07-11T23:35:58.476Z,24.10
2023-07-11T23:38:27.972Z,24.10
2023-07-11T23:40:57.563Z,24.10
2023-07-11T23:43:36.126Z,24.10
2023-07-11T23:46:04.893Z,24.00
2023-07-11T23:48:34.208Z,24.00
2023-07-11T23:51:03.448Z,24.10
2023-07-11T23:53:32.074Z,24.10
2023-07-11T23:56:01.299Z,24.10
2023-07-11T23:58:30.985Z,24.20
